createdAt,value
2022-09-25T00:00:04.744Z,3.67
2022-09-25T00:02:32.992Z,3.40
2022-09-25T00:05:08.908Z,2.60
2022-09-25T00:07:36.900Z,3.00
2022-09-25T00:10:11.874Z,2.40
2022-09-25T00:12:39.913Z,2.83
2022-09-25T00:15:15.751Z,2.90
2022-09-25T00:17:43.796Z,2.50
2022-09-25T00:20:18.780Z,2.30
2022-09-25T00:22:47.106Z,2.53
2022-09-25T00:25:22.755Z,2.70
2022-09-25T00:27:54.825Z,2.40
2022-09-25T00:30:36.790Z,2.00
2022-09-25T00:33:05.204Z,2.53
2022-09-25T00:35:41.806Z,2.50
2022-09-25T00:38:09.897Z,2.30
2022-09-25T00:40:44.826Z,2.30
2022-09-25T00:43:15.661Z,2.07
2022-09-25T00:45:50.816Z,2.30
2022-09-25T00:48:19.079Z,1.87
2022-09-25T00:50:59.809Z,1.93
2022-09-25T00:53:31.903Z,2.00
2022-09-25T00:56:08.754Z,2.40
2022-09-25T00:58:39.099Z,1.90
2022-09-25T01:01:16.020Z,1.90
2022-09-25T01:03:46.540Z,2.40
2022-09-25T01:06:24.796Z,1.67
2022-09-25T01:08:53.428Z,1.90
2022-09-25T01:11:27.960Z,1.90
2022-09-25T01:13:58.129Z,2.00
2022-09-25T01:16:39.834Z,1.80
2022-09-25T01:19:22.855Z,2.07
2022-09-25T01:22:02.992Z,2.17
2022-09-25T01:24:44.010Z,1.77
2022-09-25T01:27:47.798Z,2.27
2022-09-25T01:30:26.263Z,2.50
2022-09-25T01:33:05.817Z,2.20
2022-09-25T01:35:39.847Z,2.03
2022-09-25T01:38:23.841Z,2.20
2022-09-25T01:40:59.952Z,2.20
2022-09-25T01:43:42.812Z,2.20
2022-09-25T01:46:16.978Z,2.33
2022-09-25T01:48:54.828Z,2.30
2022-09-25T01:51:26.894Z,2.50
2022-09-25T01:54:05.885Z,2.03
2022-09-25T01:56:39.584Z,2.73
2022-09-25T01:59:18.819Z,2.27
2022-09-25T02:01:50.319Z,2.57
2022-09-25T02:04:28.841Z,2.23
2022-09-25T02:07:02.953Z,2.57
2022-09-25T02:09:41.865Z,2.30
2022-09-25T02:12:14.813Z,2.80
2022-09-25T02:14:54.848Z,2.80
2022-09-25T02:17:58.805Z,2.47
2022-09-25T02:20:41.871Z,2.47
2022-09-25T02:23:18.764Z,2.83
2022-09-25T02:25:56.881Z,2.60
2022-09-25T02:28:25.099Z,2.73
2022-09-25T02:31:08.154Z,2.60
2022-09-25T02:33:38.313Z,3.10
2022-09-25T02:36:13.910Z,2.80
2022-09-25T02:38:41.969Z,2.60
2022-09-25T02:41:25.068Z,2.83
2022-09-25T02:43:59.801Z,2.70
2022-09-25T02:46:41.996Z,3.20
2022-09-25T02:49:22.277Z,2.83
2022-09-25T02:52:03.863Z,2.60
2022-09-25T02:54:36.207Z,2.83
2022-09-25T02:57:16.919Z,3.10
2022-09-25T02:59:51.129Z,3.10
2022-09-25T03:02:27.976Z,2.73
2022-09-25T03:04:59.556Z,2.80
2022-09-25T03:07:34.945Z,2.87
2022-09-25T03:10:03.784Z,3.10
2022-09-25T03:12:43.879Z,2.60
2022-09-25T03:15:13.246Z,2.73
2022-09-25T03:17:50.899Z,2.90
2022-09-25T03:20:20.515Z,3.07
2022-09-25T03:22:54.925Z,3.03
2022-09-25T03:25:23.141Z,2.90
2022-09-25T03:27:57.928Z,2.73
2022-09-25T03:30:33.563Z,2.73
2022-09-25T03:33:16.896Z,2.90
2022-09-25T03:35:46.294Z,3.00
2022-09-25T03:38:20.920Z,3.70
2022-09-25T03:40:49.228Z,2.80
2022-09-25T03:43:24.051Z,3.20
2022-09-25T03:45:52.200Z,2.97
2022-09-25T03:48:26.931Z,3.10
2022-09-25T03:50:56.692Z,3.20
2022-09-25T03:53:31.930Z,3.33
2022-09-25T03:56:00.324Z,3.60
2022-09-25T03:58:35.945Z,3.63
2022-09-25T04:01:04.824Z,3.13
2022-09-25T04:03:41.090Z,3.47
2022-09-25T04:06:10.767Z,3.10
2022-09-25T04:08:46.015Z,4.13
2022-09-25T04:11:15.086Z,3.70
2022-09-25T04:13:50.954Z,3.47
2022-09-25T04:16:19.428Z,2.93
2022-09-25T04:18:53.949Z,3.40
2022-09-25T04:21:23.670Z,3.37
2022-09-25T04:24:12.094Z,3.70
2022-09-25T04:26:40.239Z,2.90
2022-09-25T04:29:15.984Z,3.80
2022-09-25T04:32:16.999Z,3.30
2022-09-25T04:34:44.053Z,3.77
2022-09-25T04:37:20.963Z,3.93
2022-09-25T04:39:49.032Z,3.70
2022-09-25T04:42:23.997Z,3.43
2022-09-25T04:44:54.387Z,3.80
2022-09-25T04:47:29.982Z,4.00
2022-09-25T04:50:00.354Z,4.30
2022-09-25T04:52:37.983Z,4.50
2022-09-25T04:55:06.899Z,3.60
2022-09-25T04:57:57.721Z,3.80
2022-09-25T05:00:29.441Z,3.97
2022-09-25T05:03:04.126Z,3.90
2022-09-25T05:05:33.281Z,4.33
2022-09-25T05:08:10.002Z,4.30
2022-09-25T05:10:39.741Z,4.40
2022-09-25T05:13:16.014Z,4.23
2022-09-25T05:15:44.338Z,4.40
2022-09-25T05:18:24.174Z,4.20
2022-09-25T05:20:53.298Z,4.30
2022-09-25T05:23:30.009Z,4.17
2022-09-25T05:26:02.123Z,4.40
2022-09-25T05:28:37.045Z,4.40
2022-09-25T05:31:12.085Z,4.43
2022-09-25T05:33:47.025Z,4.70
2022-09-25T05:36:15.307Z,4.67
2022-09-25T05:38:51.078Z,4.40
2022-09-25T05:41:19.389Z,4.40
2022-09-25T05:43:55.120Z,4.73
2022-09-25T05:46:23.305Z,4.73
2022-09-25T05:48:58.125Z,5.50
2022-09-25T05:51:26.341Z,5.50
2022-09-25T05:54:03.071Z,5.50
2022-09-25T05:56:31.484Z,6.27
2022-09-25T05:59:07.058Z,5.60
2022-09-25T06:01:35.224Z,5.60
2022-09-25T06:04:11.106Z,6.47
2022-09-25T06:06:39.162Z,6.20
2022-09-25T06:09:15.261Z,7.40
2022-09-25T06:11:44.006Z,9.87
2022-09-25T06:14:20.051Z,9.20
2022-09-25T06:16:49.922Z,8.37
2022-09-25T06:19:25.504Z,7.73
2022-09-25T06:21:53.584Z,7.87
2022-09-25T06:24:30.072Z,7.37
2022-09-25T06:26:58.119Z,6.50
2022-09-25T06:29:33.099Z,6.40
2022-09-25T06:32:07.289Z,7.20
2022-09-25T06:34:42.150Z,6.50
2022-09-25T06:37:10.214Z,6.87
2022-09-25T06:39:46.111Z,6.90
2022-09-25T06:42:14.112Z,6.87
2022-09-25T06:44:50.075Z,6.37
2022-09-25T06:47:20.172Z,7.13
2022-09-25T06:49:56.110Z,6.50
2022-09-25T06:52:24.297Z,6.57
2022-09-25T06:55:00.103Z,7.13
2022-09-25T06:57:28.854Z,6.70
2022-09-25T07:00:04.124Z,7.13
2022-09-25T07:02:50.011Z,8.93
2022-09-25T07:05:26.147Z,9.40
2022-09-25T07:07:55.868Z,7.23
2022-09-25T07:10:32.111Z,7.67
2022-09-25T07:13:07.131Z,6.93
2022-09-25T07:15:35.960Z,7.30
2022-09-25T07:18:11.148Z,6.97
2022-09-25T07:20:39.173Z,7.50
2022-09-25T07:23:14.143Z,7.47
2022-09-25T07:25:43.743Z,7.67
2022-09-25T07:28:19.171Z,8.20
2022-09-25T07:31:07.150Z,8.87
2022-09-25T07:33:42.121Z,7.03
2022-09-25T07:36:10.306Z,7.90
2022-09-25T07:38:45.185Z,7.73
2022-09-25T07:41:14.759Z,7.50
2022-09-25T07:43:52.677Z,6.00
2022-09-25T07:46:27.434Z,6.60
2022-09-25T07:49:03.146Z,6.37
2022-09-25T07:51:32.391Z,4.77
2022-09-25T07:54:07.236Z,5.80
2022-09-25T07:56:38.492Z,5.37
2022-09-25T07:59:13.148Z,4.80
2022-09-25T08:01:44.936Z,4.87
2022-09-25T08:04:22.196Z,5.17
2022-09-25T08:06:50.595Z,3.83
2022-09-25T08:09:25.186Z,4.93
2022-09-25T08:11:54.654Z,4.07
2022-09-25T08:14:29.217Z,4.77
2022-09-25T08:16:57.463Z,5.10
2022-09-25T08:19:34.166Z,5.50
2022-09-25T08:22:02.307Z,4.90
2022-09-25T08:24:37.194Z,4.90
2022-09-25T08:27:07.727Z,4.60
2022-09-25T08:29:43.215Z,4.47
2022-09-25T08:32:18.025Z,4.17
2022-09-25T08:34:53.225Z,4.13
2022-09-25T08:37:21.498Z,4.60
2022-09-25T08:39:56.199Z,3.83
2022-09-25T08:42:32.575Z,3.80
2022-09-25T08:45:29.229Z,4.00
2022-09-25T08:48:23.223Z,3.97
2022-09-25T08:50:53.371Z,3.50
2022-09-25T08:53:33.360Z,3.10
2022-09-25T08:56:25.349Z,3.20
2022-09-25T08:59:07.219Z,3.37
2022-09-25T09:01:45.588Z,3.00
2022-09-25T09:04:27.407Z,2.40
2022-09-25T09:07:25.142Z,2.30
2022-09-25T09:10:02.276Z,2.20
2022-09-25T09:12:37.552Z,1.90
2022-09-25T09:15:37.362Z,2.20
2022-09-25T09:18:18.083Z,2.10
2022-09-25T09:20:59.330Z,2.07
2022-09-25T09:23:35.545Z,2.07
2022-09-25T09:26:12.289Z,2.03
2022-09-25T09:28:58.842Z,1.33
2022-09-25T09:31:48.557Z,1.23
2022-09-25T09:35:05.210Z,1.30
2022-09-25T09:37:53.363Z,1.73
2022-09-25T09:40:48.825Z,1.37
2022-09-25T09:43:38.296Z,1.10
2022-09-25T09:46:22.490Z,1.20
2022-09-25T09:49:03.319Z,1.50
2022-09-25T09:51:45.524Z,1.27
2022-09-25T09:54:20.891Z,1.43
2022-09-25T09:56:59.289Z,1.43
2022-09-25T09:59:33.465Z,1.30
2022-09-25T10:02:12.351Z,1.20
2022-09-25T10:04:51.466Z,1.10
2022-09-25T10:07:23.668Z,1.30
2022-09-25T10:09:59.283Z,1.00
2022-09-25T10:12:31.654Z,1.33
2022-09-25T10:15:10.469Z,1.33
2022-09-25T10:17:39.083Z,1.17
2022-09-25T10:20:28.447Z,1.30
2022-09-25T10:22:57.383Z,1.30
2022-09-25T10:25:55.735Z,1.23
2022-09-25T10:28:28.557Z,1.30
2022-09-25T10:31:04.358Z,1.37
2022-09-25T10:33:34.117Z,1.30
2022-09-25T10:36:10.332Z,0.97
2022-09-25T10:38:55.375Z,1.10
2022-09-25T10:41:43.248Z,1.30
2022-09-25T10:44:30.374Z,1.27
2022-09-25T10:47:15.764Z,1.20
2022-09-25T10:50:12.356Z,1.00
2022-09-25T10:52:50.642Z,0.93
2022-09-25T10:55:35.518Z,1.03
2022-09-25T10:58:13.123Z,0.97
2022-09-25T11:00:52.310Z,1.13
2022-09-25T11:03:24.501Z,0.90
2022-09-25T11:06:03.307Z,1.27
2022-09-25T11:08:38.999Z,1.00
2022-09-25T11:11:16.485Z,1.00
2022-09-25T11:13:47.765Z,1.10
2022-09-25T11:16:22.419Z,1.47
2022-09-25T11:18:52.476Z,0.93
2022-09-25T11:21:32.369Z,0.90
2022-09-25T11:24:14.813Z,1.00
2022-09-25T11:26:56.393Z,1.30
2022-09-25T11:29:30.440Z,1.20
2022-09-25T11:32:19.330Z,1.50
2022-09-25T11:35:02.678Z,1.33
2022-09-25T11:37:46.536Z,1.10
2022-09-25T11:40:48.950Z,1.00
2022-09-25T11:43:28.364Z,0.97
2022-09-25T11:46:03.424Z,1.27
2022-09-25T11:48:47.398Z,1.17
2022-09-25T11:51:36.005Z,1.00
2022-09-25T11:54:33.928Z,1.23
2022-09-25T11:57:10.601Z,1.00
2022-09-25T11:59:58.355Z,1.13
2022-09-25T12:02:40.952Z,0.93
2022-09-25T12:05:42.401Z,0.90
2022-09-25T12:08:24.536Z,1.30
2022-09-25T12:11:09.593Z,0.90
2022-09-25T12:13:44.977Z,0.80
2022-09-25T12:16:29.463Z,0.97
2022-09-25T12:19:24.781Z,1.17
2022-09-25T12:22:07.399Z,1.03
2022-09-25T12:24:48.229Z,1.00
2022-09-25T12:27:30.421Z,1.30
2022-09-25T12:30:24.656Z,1.00
2022-09-25T12:33:26.396Z,1.20
2022-09-25T12:36:00.128Z,1.00
2022-09-25T12:38:42.483Z,0.90
2022-09-25T12:41:18.007Z,0.90
2022-09-25T12:43:56.420Z,0.90
2022-09-25T12:46:31.900Z,0.90
2022-09-25T12:49:10.469Z,1.10
2022-09-25T12:51:42.701Z,1.00
2022-09-25T12:54:29.442Z,1.30
2022-09-25T12:56:59.730Z,1.00
2022-09-25T12:59:45.457Z,1.00
2022-09-25T13:02:21.644Z,1.00
2022-09-25T13:05:15.911Z,1.20
2022-09-25T13:07:53.467Z,1.17
2022-09-25T13:10:41.460Z,1.10
2022-09-25T13:13:13.461Z,1.20
2022-09-25T13:15:50.496Z,1.27
2022-09-25T13:18:22.639Z,1.00
2022-09-25T13:20:59.483Z,1.40
2022-09-25T13:23:34.802Z,1.20
2022-09-25T13:26:18.453Z,1.30
2022-09-25T13:28:52.624Z,1.20
2022-09-25T13:31:38.459Z,1.00
2022-09-25T13:34:16.921Z,1.20
2022-09-25T13:36:55.465Z,1.03
2022-09-25T13:39:49.629Z,1.10
2022-09-25T13:42:31.551Z,1.30
2022-09-25T13:45:07.808Z,0.80
2022-09-25T13:48:19.477Z,0.80
2022-09-25T13:50:53.877Z,1.10
2022-09-25T13:53:37.469Z,1.30
2022-09-25T13:56:26.416Z,1.00
2022-09-25T13:59:29.512Z,0.90
2022-09-25T14:02:37.360Z,1.20
2022-09-25T14:05:14.684Z,1.10
2022-09-25T14:07:45.679Z,1.00
2022-09-25T14:10:20.493Z,0.93
2022-09-25T14:12:50.707Z,0.80
2022-09-25T14:15:33.502Z,1.00
2022-09-25T14:18:04.229Z,0.93
2022-09-25T14:20:43.556Z,1.03
2022-09-25T14:23:23.751Z,1.13
2022-09-25T14:26:05.517Z,1.30
2022-09-25T14:28:35.584Z,1.00
2022-09-25T14:31:52.723Z,1.20
2022-09-25T14:34:43.394Z,1.10
2022-09-25T14:37:39.545Z,1.10
2022-09-25T14:40:21.056Z,0.90
2022-09-25T14:43:15.507Z,0.90
2022-09-25T14:46:03.116Z,1.00
2022-09-25T14:48:46.532Z,1.00
2022-09-25T14:51:20.749Z,1.00
2022-09-25T14:54:05.447Z,0.80
2022-09-25T14:56:37.697Z,1.10
2022-09-25T14:59:18.757Z,1.03
2022-09-25T15:01:50.719Z,0.87
2022-09-25T15:04:34.547Z,0.90
2022-09-25T15:07:10.201Z,0.77
2022-09-25T15:09:53.548Z,0.90
2022-09-25T15:12:26.632Z,1.00
2022-09-25T15:15:08.630Z,1.20
2022-09-25T15:17:47.826Z,0.80
2022-09-25T15:20:25.569Z,1.00
2022-09-25T15:22:57.177Z,0.60
2022-09-25T15:25:34.579Z,1.20
2022-09-25T15:28:10.217Z,1.13
2022-09-25T15:30:48.644Z,0.80
2022-09-25T15:33:29.826Z,0.80
2022-09-25T15:36:05.581Z,0.53
2022-09-25T15:38:35.729Z,1.10
2022-09-25T15:41:10.619Z,1.23
2022-09-25T15:43:40.356Z,0.83
2022-09-25T15:46:35.584Z,1.07
2022-09-25T15:49:04.626Z,0.90
2022-09-25T15:51:41.775Z,0.87
2022-09-25T15:54:37.215Z,1.00
2022-09-25T15:57:16.838Z,1.00
2022-09-25T16:00:06.287Z,0.87
2022-09-25T16:03:01.659Z,0.90
2022-09-25T16:05:32.992Z,0.90
2022-09-25T16:08:24.643Z,1.07
2022-09-25T16:11:06.072Z,0.90
2022-09-25T16:13:40.612Z,1.17
2022-09-25T16:16:19.443Z,1.13
2022-09-25T16:18:54.710Z,1.00
2022-09-25T16:21:27.478Z,0.80
2022-09-25T16:24:05.624Z,1.00
2022-09-25T16:26:38.258Z,1.10
2022-09-25T16:29:27.643Z,1.10
2022-09-25T16:32:13.131Z,1.30
2022-09-25T16:34:48.652Z,1.00
2022-09-25T16:37:21.468Z,1.03
2022-09-25T16:40:17.811Z,1.33
2022-09-25T16:42:47.454Z,1.10
2022-09-25T16:45:25.633Z,0.90
2022-09-25T16:47:55.381Z,1.10
2022-09-25T16:50:30.701Z,0.90
2022-09-25T16:52:58.818Z,3.43
2022-09-25T16:55:36.721Z,4.20
2022-09-25T16:58:11.006Z,2.53
2022-09-25T17:00:45.788Z,1.80
2022-09-25T17:03:15.227Z,1.60
2022-09-25T17:05:49.841Z,1.80
2022-09-25T17:08:20.217Z,1.57
2022-09-25T17:10:57.690Z,1.30
2022-09-25T17:13:30.952Z,1.40
2022-09-25T17:16:05.976Z,1.40
2022-09-25T17:18:36.009Z,1.40
2022-09-25T17:21:13.674Z,1.47
2022-09-25T17:23:42.125Z,1.43
2022-09-25T17:26:23.761Z,1.10
2022-09-25T17:28:52.479Z,1.60
2022-09-25T17:31:28.772Z,1.50
2022-09-25T17:34:10.840Z,1.40
2022-09-25T17:36:45.719Z,1.30
2022-09-25T17:39:14.051Z,1.60
2022-09-25T17:41:49.710Z,1.73
2022-09-25T17:44:21.784Z,1.63
2022-09-25T17:46:56.715Z,3.00
2022-09-25T17:49:26.225Z,1.50
2022-09-25T17:52:00.698Z,1.63
2022-09-25T17:54:31.639Z,1.57
2022-09-25T17:57:06.946Z,1.77
2022-09-25T17:59:35.086Z,2.40
2022-09-25T18:02:11.054Z,2.37
2022-09-25T18:04:40.637Z,1.83
2022-09-25T18:07:15.722Z,1.50
2022-09-25T18:09:43.991Z,1.50
2022-09-25T18:12:18.897Z,1.80
2022-09-25T18:14:47.242Z,1.53
2022-09-25T18:17:23.729Z,1.80
2022-09-25T18:20:10.787Z,2.00
2022-09-25T18:22:45.723Z,2.20
2022-09-25T18:25:14.065Z,2.00
2022-09-25T18:28:02.775Z,1.90
2022-09-25T18:30:44.922Z,1.90
2022-09-25T18:33:22.161Z,3.60
2022-09-25T18:35:57.733Z,6.83
2022-09-25T18:38:25.901Z,6.13
2022-09-25T18:41:00.839Z,4.93
2022-09-25T18:43:28.954Z,2.60
2022-09-25T18:46:03.879Z,2.50
2022-09-25T18:48:32.165Z,1.97
2022-09-25T18:51:08.804Z,2.20
2022-09-25T18:53:36.953Z,1.90
2022-09-25T18:56:11.771Z,1.90
2022-09-25T18:58:40.226Z,2.10
2022-09-25T19:01:08.727Z,1.90
2022-09-25T19:03:43.904Z,1.80
2022-09-25T19:06:13.539Z,1.80
2022-09-25T19:08:47.790Z,1.90
2022-09-25T19:11:16.666Z,1.50
2022-09-25T19:13:51.823Z,1.43
2022-09-25T19:16:21.421Z,1.43
2022-09-25T19:18:50.886Z,1.40
2022-09-25T19:21:28.809Z,1.53
2022-09-25T19:23:57.793Z,1.50
2022-09-25T19:26:33.778Z,1.50
2022-09-25T19:29:02.496Z,1.33
2022-09-25T19:31:38.047Z,1.50
2022-09-25T19:34:13.101Z,1.53
2022-09-25T19:36:48.799Z,1.50
2022-09-25T19:39:16.868Z,1.50
2022-09-25T19:41:51.792Z,1.60
2022-09-25T19:44:20.181Z,1.40
2022-09-25T19:46:55.856Z,1.40
2022-09-25T19:49:25.039Z,1.40
2022-09-25T19:52:00.837Z,1.50
2022-09-25T19:54:29.580Z,1.73
2022-09-25T19:57:03.972Z,1.80
2022-09-25T19:59:32.083Z,1.80
2022-09-25T20:02:06.931Z,1.97
2022-09-25T20:04:35.297Z,1.60
2022-09-25T20:07:11.018Z,1.53
2022-09-25T20:09:40.168Z,1.70
2022-09-25T20:12:14.830Z,1.73
2022-09-25T20:14:42.954Z,1.93
2022-09-25T20:17:18.025Z,2.00
2022-09-25T20:19:46.185Z,1.90
2022-09-25T20:22:22.848Z,1.77
2022-09-25T20:24:51.526Z,2.00
2022-09-25T20:27:25.843Z,2.03
2022-09-25T20:29:54.221Z,1.90
2022-09-25T20:32:35.849Z,1.70
2022-09-25T20:35:10.856Z,1.60
2022-09-25T20:37:47.026Z,1.93
2022-09-25T20:40:15.352Z,1.90
2022-09-25T20:42:50.991Z,1.80
2022-09-25T20:45:19.067Z,2.30
2022-09-25T20:47:54.836Z,2.10
2022-09-25T20:50:22.932Z,2.00
2022-09-25T20:52:58.852Z,3.63
2022-09-25T20:55:26.952Z,13.17
2022-09-25T20:58:01.894Z,12.13
2022-09-25T21:00:30.001Z,6.70
2022-09-25T21:03:06.932Z,3.70
2022-09-25T21:05:38.797Z,2.47
2022-09-25T21:08:15.093Z,1.87
2022-09-25T21:10:43.187Z,2.27
2022-09-25T21:13:17.901Z,2.17
2022-09-25T21:15:52.871Z,2.20
2022-09-25T21:18:21.020Z,2.10
2022-09-25T21:20:55.933Z,2.30
2022-09-25T21:23:25.925Z,2.27
2022-09-25T21:26:00.870Z,2.10
2022-09-25T21:28:31.013Z,2.20
2022-09-25T21:31:10.986Z,2.10
2022-09-25T21:33:47.053Z,2.30
2022-09-25T21:36:23.898Z,2.00
2022-09-25T21:38:54.008Z,2.50
2022-09-25T21:41:31.904Z,2.23
2022-09-25T21:44:02.604Z,2.30
2022-09-25T21:46:38.996Z,2.50
2022-09-25T21:49:08.437Z,2.57
2022-09-25T21:51:45.910Z,2.60
2022-09-25T21:54:16.853Z,2.63
2022-09-25T21:56:55.068Z,2.70
2022-09-25T21:59:26.736Z,2.67
2022-09-25T22:02:04.001Z,2.90
2022-09-25T22:04:32.042Z,3.07
2022-09-25T22:07:06.967Z,2.70
2022-09-25T22:09:40.955Z,2.70
2022-09-25T22:12:15.975Z,2.30
2022-09-25T22:14:44.036Z,2.70
2022-09-25T22:17:20.947Z,2.43
2022-09-25T22:19:48.967Z,2.40
2022-09-25T22:22:25.151Z,2.63
2022-09-25T22:24:54.709Z,2.43
2022-09-25T22:27:31.110Z,2.50
2022-09-25T22:29:59.130Z,2.50
2022-09-25T22:32:33.944Z,2.80
2022-09-25T22:35:09.397Z,2.63
2022-09-25T22:37:43.969Z,2.80
2022-09-25T22:40:13.518Z,2.83
2022-09-25T22:42:47.981Z,2.73
2022-09-25T22:45:16.177Z,3.30
2022-09-25T22:47:51.158Z,2.70
2022-09-25T22:50:21.921Z,2.80
2022-09-25T22:52:58.442Z,3.10
2022-09-25T22:55:28.098Z,2.97
2022-09-25T22:58:02.963Z,3.27
2022-09-25T23:00:32.276Z,3.33
2022-09-25T23:03:07.032Z,3.60
2022-09-25T23:05:37.265Z,3.50
2022-09-25T23:08:12.139Z,3.70
2022-09-25T23:11:05.470Z,4.10
2022-09-25T23:13:37.011Z,4.00
2022-09-25T23:16:14.200Z,3.70
2022-09-25T23:18:42.460Z,3.97
2022-09-25T23:21:10.481Z,4.00
2022-09-25T23:23:46.075Z,3.70
2022-09-25T23:26:22.912Z,3.90
2022-09-25T23:28:52.467Z,3.70
2022-09-25T23:31:29.195Z,3.57
2022-09-25T23:34:05.218Z,3.97
2022-09-25T23:36:40.142Z,3.53
2022-09-25T23:39:09.635Z,3.70
2022-09-25T23:41:47.031Z,3.53
2022-09-25T23:44:17.039Z,3.80
2022-09-25T23:46:52.019Z,3.40
2022-09-25T23:49:20.239Z,3.67
2022-09-25T23:51:55.341Z,3.80
2022-09-25T23:54:23.382Z,3.67
2022-09-25T23:57:00.071Z,3.20
2022-09-25T23:59:28.392Z,3.63
